createdAt,value
2023-04-26T00:00:30.589Z,569.00
2023-04-26T00:01:30.609Z,567.00
2023-04-26T00:02:30.839Z,566.00
2023-04-26T00:03:30.784Z,566.00
2023-04-26T00:04:30.928Z,569.00
2023-04-26T00:05:30.837Z,567.00
2023-04-26T00:06:30.865Z,568.00
2023-04-26T00:07:30.927Z,569.00
2023-04-26T00:08:30.921Z,574.00
2023-04-26T00:09:30.990Z,570.00
2023-04-26T00:10:30.970Z,570.00
2023-04-26T00:11:30.995Z,568.00
2023-04-26T00:12:31.020Z,566.00
2023-04-26T00:13:31.092Z,569.00
2023-04-26T00:14:31.100Z,569.00
2023-04-26T00:15:31.182Z,566.00
2023-04-26T00:17:34.795Z,500.00
2023-04-26T00:18:34.732Z,500.00
2023-04-26T00:19:34.724Z,500.00
2023-04-26T00:20:34.734Z,500.00
2023-04-26T00:21:34.707Z,500.00
2023-04-26T00:22:34.684Z,501.00
2023-04-26T00:23:34.696Z,504.00
2023-04-26T00:24:34.668Z,500.00
2023-04-26T00:25:34.673Z,500.00
2023-04-26T00:26:34.663Z,503.00
2023-04-26T00:27:34.670Z,503.00
2023-04-26T00:28:34.645Z,501.00
2023-04-26T00:29:34.644Z,503.00
2023-04-26T00:30:34.634Z,505.00
2023-04-26T00:31:34.680Z,504.00
2023-04-26T00:32:34.672Z,507.00
2023-04-26T00:33:34.604Z,508.00
2023-04-26T00:34:34.597Z,502.00
2023-04-26T00:35:34.587Z,507.00
2023-04-26T00:36:34.582Z,505.00
2023-04-26T00:37:34.621Z,506.00
2023-04-26T00:38:34.560Z,511.00
2023-04-26T00:39:34.552Z,506.00
2023-04-26T00:40:34.556Z,507.00
2023-04-26T00:41:34.563Z,504.00
2023-04-26T00:42:34.552Z,505.00
2023-04-26T00:43:34.542Z,506.00
2023-04-26T00:44:34.786Z,508.00
2023-04-26T00:45:34.588Z,511.00
2023-04-26T00:46:34.521Z,506.00
2023-04-26T00:47:34.520Z,506.00
2023-04-26T00:48:34.545Z,505.00
2023-04-26T00:49:34.555Z,506.00
2023-04-26T00:50:34.536Z,509.00
2023-04-26T00:51:34.560Z,503.00
2023-04-26T00:52:34.593Z,507.00
2023-04-26T00:53:34.644Z,513.00
2023-04-26T00:54:34.671Z,506.00
2023-04-26T00:55:34.759Z,505.00
2023-04-26T00:56:34.753Z,505.00
2023-04-26T00:57:34.760Z,508.00
2023-04-26T00:58:34.848Z,505.00
2023-04-26T00:59:34.830Z,506.00
2023-04-26T01:00:34.832Z,505.00
2023-04-26T01:01:34.955Z,509.00
2023-04-26T01:02:35.052Z,506.00
2023-04-26T01:03:35.049Z,507.00
2023-04-26T01:04:35.018Z,508.00
2023-04-26T01:05:34.921Z,510.00
2023-04-26T01:06:34.939Z,510.00
2023-04-26T01:07:34.951Z,514.00
2023-04-26T01:08:35.013Z,504.00
2023-04-26T01:09:34.987Z,512.00
2023-04-26T01:10:34.988Z,508.00
2023-04-26T01:11:35.020Z,506.00
2023-04-26T01:12:35.006Z,512.00
2023-04-26T01:13:35.137Z,507.00
2023-04-26T01:14:35.044Z,506.00
2023-04-26T01:15:35.051Z,510.00
2023-04-26T01:16:35.059Z,507.00
2023-04-26T01:17:35.124Z,506.00
2023-04-26T01:18:35.118Z,506.00
2023-04-26T01:19:35.085Z,507.00
2023-04-26T01:20:35.100Z,510.00
2023-04-26T01:21:35.104Z,506.00
2023-04-26T01:22:35.131Z,511.00
2023-04-26T01:23:35.146Z,504.00
2023-04-26T01:24:35.112Z,507.00
2023-04-26T01:25:35.159Z,507.00
2023-04-26T01:26:35.171Z,509.00
2023-04-26T01:27:35.135Z,510.00
2023-04-26T01:28:35.144Z,507.00
2023-04-26T01:29:35.206Z,506.00
2023-04-26T01:30:35.131Z,509.00
2023-04-26T01:31:35.233Z,506.00
2023-04-26T01:32:35.142Z,511.00
2023-04-26T01:33:35.158Z,509.00
2023-04-26T01:34:35.160Z,513.00
2023-04-26T01:35:35.170Z,515.00
2023-04-26T01:36:35.190Z,510.00
2023-04-26T01:37:35.150Z,507.00
2023-04-26T01:38:35.203Z,509.00
2023-04-26T01:39:35.170Z,511.00
2023-04-26T01:40:35.164Z,508.00
2023-04-26T01:41:35.175Z,513.00
2023-04-26T01:42:35.209Z,508.00
2023-04-26T01:43:35.218Z,508.00
2023-04-26T01:44:35.164Z,510.00
2023-04-26T01:45:35.199Z,507.00
2023-04-26T01:46:35.183Z,510.00
2023-04-26T01:47:35.204Z,504.00
2023-04-26T01:48:35.206Z,509.00
2023-04-26T01:49:35.187Z,513.00
2023-04-26T01:50:35.180Z,509.00
2023-04-26T01:51:35.205Z,510.00
2023-04-26T01:52:35.175Z,508.00
2023-04-26T01:53:35.172Z,505.00
2023-04-26T01:54:35.176Z,510.00
2023-04-26T01:55:35.181Z,510.00
2023-04-26T01:56:35.196Z,509.00
2023-04-26T01:57:35.199Z,506.00
2023-04-26T01:58:35.160Z,511.00
2023-04-26T01:59:35.195Z,508.00
2023-04-26T02:00:35.163Z,507.00
2023-04-26T02:01:35.204Z,509.00
2023-04-26T02:02:35.198Z,511.00
2023-04-26T02:03:35.244Z,507.00
2023-04-26T02:04:35.178Z,510.00
2023-04-26T02:05:35.162Z,506.00
2023-04-26T02:06:35.160Z,503.00
2023-04-26T02:07:35.160Z,505.00
2023-04-26T02:08:35.145Z,508.00
2023-04-26T02:09:35.178Z,508.00
2023-04-26T02:10:35.138Z,505.00
2023-04-26T02:11:35.148Z,512.00
2023-04-26T02:12:35.157Z,505.00
2023-04-26T02:13:35.182Z,520.00
2023-04-26T02:14:35.177Z,509.00
2023-04-26T02:15:35.161Z,506.00
2023-04-26T02:16:35.251Z,504.00
2023-04-26T02:17:35.202Z,504.00
2023-04-26T02:18:35.209Z,504.00
2023-04-26T02:19:35.199Z,507.00
2023-04-26T02:20:35.144Z,512.00
2023-04-26T02:21:35.152Z,502.00
2023-04-26T02:22:35.177Z,509.00
2023-04-26T02:23:35.140Z,507.00
2023-04-26T02:24:35.188Z,506.00
2023-04-26T02:25:35.133Z,509.00
2023-04-26T02:26:35.146Z,513.00
2023-04-26T02:27:35.117Z,506.00
2023-04-26T02:28:35.112Z,502.00
2023-04-26T02:30:35.117Z,511.00
2023-04-26T02:31:35.105Z,510.00
2023-04-26T02:32:35.109Z,506.00
2023-04-26T02:33:35.078Z,512.00
2023-04-26T02:34:35.083Z,511.00
2023-04-26T02:35:35.050Z,515.00
2023-04-26T02:36:35.045Z,505.00
2023-04-26T02:37:35.050Z,504.00
2023-04-26T02:38:35.084Z,501.00
2023-04-26T02:39:35.026Z,513.00
2023-04-26T02:40:35.017Z,509.00
2023-04-26T02:41:35.008Z,504.00
2023-04-26T02:42:34.999Z,507.00
2023-04-26T02:43:35.024Z,506.00
2023-04-26T02:44:34.998Z,507.00
2023-04-26T02:45:35.002Z,503.00
2023-04-26T02:46:35.048Z,501.00
2023-04-26T02:47:34.979Z,503.00
2023-04-26T02:48:34.948Z,511.00
2023-04-26T02:49:34.939Z,505.00
2023-04-26T02:50:34.973Z,511.00
2023-04-26T02:51:34.940Z,505.00
2023-04-26T02:52:34.941Z,507.00
2023-04-26T02:53:34.954Z,508.00
2023-04-26T02:54:34.923Z,505.00
2023-04-26T02:55:34.913Z,505.00
2023-04-26T02:56:34.898Z,514.00
2023-04-26T02:57:34.894Z,506.00
2023-04-26T02:58:34.883Z,500.00
2023-04-26T02:59:34.894Z,509.00
2023-04-26T03:00:34.887Z,510.00
2023-04-26T03:01:34.983Z,505.00
2023-04-26T03:02:34.962Z,507.00
2023-04-26T03:03:35.007Z,513.00
2023-04-26T03:04:34.868Z,513.00
2023-04-26T03:05:34.853Z,510.00
2023-04-26T03:06:34.854Z,507.00
2023-04-26T03:07:34.821Z,509.00
2023-04-26T03:08:34.801Z,508.00
2023-04-26T03:09:34.791Z,509.00
2023-04-26T03:10:34.820Z,511.00
2023-04-26T03:11:34.844Z,507.00
2023-04-26T03:12:34.835Z,509.00
2023-04-26T03:13:34.773Z,507.00
2023-04-26T03:14:34.775Z,505.00
2023-04-26T03:15:34.741Z,506.00
2023-04-26T03:16:34.773Z,508.00
2023-04-26T03:17:34.827Z,508.00
2023-04-26T03:18:34.741Z,504.00
2023-04-26T03:19:34.715Z,505.00
2023-04-26T03:20:34.724Z,508.00
2023-04-26T03:21:34.710Z,507.00
2023-04-26T03:22:34.733Z,509.00
2023-04-26T03:23:34.704Z,509.00
2023-04-26T03:24:34.678Z,507.00
2023-04-26T03:25:34.713Z,507.00
2023-04-26T03:26:34.675Z,504.00
2023-04-26T03:27:34.682Z,503.00
2023-04-26T03:28:34.663Z,501.00
2023-04-26T03:29:34.640Z,511.00
2023-04-26T03:30:34.651Z,510.00
2023-04-26T03:31:34.672Z,510.00
2023-04-26T03:32:34.646Z,507.00
2023-04-26T03:33:34.622Z,504.00
2023-04-26T03:34:34.600Z,513.00
2023-04-26T03:35:34.620Z,508.00
2023-04-26T03:36:34.589Z,514.00
2023-04-26T03:37:34.582Z,508.00
2023-04-26T03:38:34.586Z,504.00
2023-04-26T03:39:34.559Z,509.00
2023-04-26T03:40:34.556Z,507.00
2023-04-26T03:41:34.577Z,507.00
2023-04-26T03:42:34.574Z,509.00
2023-04-26T03:43:34.539Z,508.00
2023-04-26T03:44:34.541Z,507.00
2023-04-26T03:45:34.551Z,508.00
2023-04-26T03:46:34.500Z,511.00
2023-04-26T03:47:34.541Z,509.00
2023-04-26T03:48:34.514Z,508.00
2023-04-26T03:49:34.509Z,513.00
2023-04-26T03:50:35.027Z,503.00
2023-04-26T03:51:34.487Z,504.00
2023-04-26T03:52:34.463Z,504.00
2023-04-26T03:53:34.454Z,508.00
2023-04-26T03:54:34.486Z,507.00
2023-04-26T03:55:34.449Z,510.00
2023-04-26T03:56:34.447Z,505.00
2023-04-26T03:57:34.448Z,507.00
2023-04-26T03:58:34.435Z,511.00
2023-04-26T03:59:34.450Z,505.00
2023-04-26T04:00:34.419Z,504.00
2023-04-26T04:01:34.430Z,506.00
2023-04-26T04:02:34.592Z,503.00
2023-04-26T04:03:34.824Z,506.00
2023-04-26T04:04:34.697Z,508.00
2023-04-26T04:05:34.459Z,505.00
2023-04-26T04:06:34.370Z,507.00
2023-04-26T04:07:34.366Z,508.00
2023-04-26T04:08:34.359Z,504.00
2023-04-26T04:09:34.338Z,512.00
2023-04-26T04:10:34.336Z,510.00
2023-04-26T04:11:34.339Z,509.00
2023-04-26T04:12:34.370Z,512.00
2023-04-26T04:13:34.354Z,507.00
2023-04-26T04:14:34.314Z,510.00
2023-04-26T04:15:34.321Z,501.00
2023-04-26T04:16:34.316Z,505.00
2023-04-26T04:17:35.519Z,509.00
2023-04-26T04:18:34.310Z,509.00
2023-04-26T04:19:34.293Z,510.00
2023-04-26T04:20:34.268Z,506.00
2023-04-26T04:21:34.289Z,511.00
2023-04-26T04:22:34.258Z,516.00
2023-04-26T04:23:34.244Z,505.00
2023-04-26T04:24:34.552Z,515.00
2023-04-26T04:25:34.237Z,509.00
2023-04-26T04:26:34.233Z,505.00
2023-04-26T04:27:34.244Z,512.00
2023-04-26T04:28:34.245Z,512.00
2023-04-26T04:29:34.237Z,512.00
2023-04-26T04:30:34.245Z,511.00
2023-04-26T04:31:34.273Z,510.00
2023-04-26T04:32:34.221Z,509.00
2023-04-26T04:33:34.201Z,507.00
2023-04-26T04:34:34.173Z,508.00
2023-04-26T04:35:34.302Z,508.00
2023-04-26T04:36:34.149Z,512.00
2023-04-26T04:37:34.139Z,509.00
2023-04-26T04:38:34.153Z,512.00
2023-04-26T04:39:34.133Z,507.00
2023-04-26T04:40:34.121Z,512.00
2023-04-26T04:41:34.118Z,507.00
2023-04-26T04:42:34.109Z,509.00
2023-04-26T04:43:34.115Z,504.00
2023-04-26T04:44:34.090Z,509.00
2023-04-26T04:45:34.099Z,511.00
2023-04-26T04:46:34.114Z,505.00
2023-04-26T04:47:34.154Z,510.00
2023-04-26T04:48:34.069Z,508.00
2023-04-26T04:49:34.074Z,507.00
2023-04-26T04:50:34.038Z,506.00
2023-04-26T04:51:34.030Z,505.00
2023-04-26T04:52:34.048Z,505.00
2023-04-26T04:53:34.020Z,500.00
2023-04-26T04:54:34.034Z,505.00
2023-04-26T04:55:34.027Z,502.00
2023-04-26T04:56:34.072Z,505.00
2023-04-26T04:57:33.998Z,508.00
2023-04-26T04:58:33.997Z,510.00
2023-04-26T04:59:33.991Z,500.00
2023-04-26T05:00:34.005Z,504.00
2023-04-26T05:01:33.982Z,503.00
2023-04-26T05:02:34.032Z,500.00
2023-04-26T05:03:34.088Z,505.00
2023-04-26T05:04:34.165Z,507.00
2023-04-26T05:05:33.965Z,506.00
2023-04-26T05:06:33.999Z,507.00
2023-04-26T05:07:33.908Z,507.00
2023-04-26T05:08:33.905Z,510.00
2023-04-26T05:09:33.909Z,507.00
2023-04-26T05:10:33.901Z,502.00
2023-04-26T05:11:33.885Z,504.00
2023-04-26T05:12:33.885Z,508.00
2023-04-26T05:13:33.871Z,504.00
2023-04-26T05:14:33.892Z,502.00
2023-04-26T05:15:33.909Z,509.00
2023-04-26T05:16:33.877Z,504.00
2023-04-26T05:17:33.871Z,507.00
2023-04-26T05:18:33.846Z,504.00
2023-04-26T05:19:33.835Z,503.00
2023-04-26T05:20:33.850Z,506.00
2023-04-26T05:21:33.813Z,506.00
2023-04-26T05:22:33.830Z,500.00
2023-04-26T05:23:33.827Z,500.00
2023-04-26T05:24:33.803Z,509.00
2023-04-26T05:25:33.809Z,510.00
2023-04-26T05:26:33.793Z,503.00
2023-04-26T05:27:33.778Z,509.00
2023-04-26T05:28:33.758Z,504.00
2023-04-26T05:29:33.792Z,504.00
2023-04-26T05:30:33.815Z,507.00
2023-04-26T05:31:33.822Z,504.00
2023-04-26T05:32:33.810Z,503.00
2023-04-26T05:33:33.753Z,505.00
2023-04-26T05:34:33.733Z,508.00
2023-04-26T05:35:34.014Z,507.00
2023-04-26T05:36:33.718Z,503.00
2023-04-26T05:37:33.708Z,510.00
2023-04-26T05:38:33.779Z,502.00
2023-04-26T05:39:33.689Z,512.00
2023-04-26T05:40:33.742Z,521.00
2023-04-26T05:41:33.683Z,532.00
2023-04-26T05:42:33.726Z,534.00
2023-04-26T05:43:33.661Z,547.00
2023-04-26T05:44:33.704Z,555.00
2023-04-26T05:45:34.095Z,557.00
2023-04-26T05:46:33.653Z,559.00
2023-04-26T05:47:33.706Z,561.00
2023-04-26T05:48:34.568Z,574.00
2023-04-26T05:49:33.637Z,585.00
2023-04-26T05:50:34.035Z,587.00
2023-04-26T05:51:33.615Z,595.00
2023-04-26T05:52:33.620Z,602.00
2023-04-26T05:53:33.586Z,611.00
2023-04-26T05:54:33.583Z,625.00
2023-04-26T05:55:33.605Z,620.00
2023-04-26T05:56:33.564Z,628.00
2023-04-26T05:57:33.669Z,638.00
2023-04-26T05:58:33.605Z,630.00
2023-04-26T05:59:33.553Z,630.00
2023-04-26T06:00:33.573Z,638.00
2023-04-26T06:01:33.555Z,653.00
2023-04-26T06:02:33.813Z,660.00
2023-04-26T06:03:33.964Z,672.00
2023-04-26T06:04:34.020Z,692.00
2023-04-26T06:05:33.795Z,696.00
2023-04-26T06:06:33.809Z,691.00
2023-04-26T06:07:33.857Z,743.00
2023-04-26T06:08:33.925Z,777.00
2023-04-26T06:09:33.955Z,773.00
2023-04-26T06:10:34.054Z,767.00
2023-04-26T06:11:34.049Z,776.00
2023-04-26T06:12:34.097Z,778.00
2023-04-26T06:13:34.107Z,791.00
2023-04-26T06:14:34.173Z,821.00
2023-04-26T06:15:35.027Z,819.00
2023-04-26T06:16:34.241Z,809.00
2023-04-26T06:17:34.274Z,844.00
2023-04-26T06:18:34.429Z,845.00
2023-04-26T06:19:34.322Z,899.00
2023-04-26T06:20:34.347Z,902.00
2023-04-26T06:21:34.413Z,941.00
2023-04-26T06:22:34.382Z,961.00
2023-04-26T06:23:34.353Z,979.00
2023-04-26T06:24:34.380Z,997.00
2023-04-26T06:25:34.531Z,1023.00
2023-04-26T06:26:34.392Z,1026.00
2023-04-26T06:27:34.433Z,1036.00
2023-04-26T06:28:34.402Z,1039.00
2023-04-26T06:29:34.450Z,1048.00
2023-04-26T06:30:34.584Z,1015.00
2023-04-26T06:31:34.481Z,1070.00
2023-04-26T06:32:34.487Z,1057.00
2023-04-26T06:33:34.510Z,1011.00
2023-04-26T06:34:34.457Z,991.00
2023-04-26T06:35:35.086Z,1010.00
2023-04-26T06:36:34.475Z,910.00
2023-04-26T06:37:34.508Z,892.00
2023-04-26T06:38:34.591Z,852.00
2023-04-26T06:39:34.661Z,814.00
2023-04-26T06:40:35.041Z,777.00
2023-04-26T06:41:34.729Z,736.00
2023-04-26T06:42:34.766Z,685.00
2023-04-26T06:43:34.689Z,655.00
2023-04-26T06:44:34.730Z,658.00
2023-04-26T06:45:34.780Z,650.00
2023-04-26T06:46:34.771Z,636.00
2023-04-26T06:47:34.775Z,630.00
2023-04-26T06:48:34.764Z,619.00
2023-04-26T06:49:34.760Z,609.00
2023-04-26T06:50:34.830Z,593.00
2023-04-26T06:51:34.875Z,590.00
2023-04-26T06:52:34.894Z,591.00
2023-04-26T06:53:34.949Z,575.00
2023-04-26T06:54:39.888Z,559.00
2023-04-26T06:55:36.084Z,559.00
2023-04-26T06:56:35.096Z,560.00
2023-04-26T06:57:34.978Z,564.00
2023-04-26T06:58:34.965Z,567.00
2023-04-26T06:59:35.588Z,554.00
2023-04-26T07:00:35.042Z,559.00
2023-04-26T07:01:34.996Z,560.00
2023-04-26T07:02:35.018Z,552.00
2023-04-26T07:03:35.120Z,538.00
2023-04-26T07:04:35.137Z,536.00
2023-04-26T07:05:35.091Z,541.00
2023-04-26T07:06:35.206Z,542.00
2023-04-26T07:07:35.174Z,546.00
2023-04-26T07:08:35.239Z,545.00
2023-04-26T07:09:35.309Z,532.00
2023-04-26T07:10:35.359Z,540.00
2023-04-26T07:11:35.425Z,534.00
2023-04-26T07:12:35.523Z,530.00
2023-04-26T07:13:35.549Z,544.00
2023-04-26T07:14:37.135Z,537.00
2023-04-26T07:15:35.589Z,542.00
2023-04-26T07:16:35.643Z,549.00
2023-04-26T07:17:35.628Z,528.00
2023-04-26T07:18:35.567Z,529.00
2023-04-26T07:19:35.552Z,526.00
2023-04-26T07:20:35.577Z,536.00
2023-04-26T07:21:35.531Z,518.00
2023-04-26T07:22:35.507Z,507.00
2023-04-26T07:23:35.515Z,507.00
2023-04-26T07:24:35.488Z,512.00
2023-04-26T07:25:35.605Z,511.00
2023-04-26T07:26:35.511Z,500.00
2023-04-26T07:27:35.484Z,528.00
2023-04-26T07:28:35.467Z,526.00
2023-04-26T07:29:35.455Z,543.00
2023-04-26T07:30:35.456Z,549.00
2023-04-26T07:31:35.445Z,529.00
2023-04-26T07:32:35.507Z,552.00
2023-04-26T07:33:35.643Z,560.00
2023-04-26T07:34:35.427Z,556.00
2023-04-26T07:35:35.641Z,594.00
2023-04-26T07:36:35.403Z,814.00
2023-04-26T07:37:35.394Z,907.00
2023-04-26T07:38:35.427Z,881.00
2023-04-26T07:39:35.411Z,794.00
2023-04-26T07:40:35.398Z,762.00
2023-04-26T07:41:35.415Z,718.00
2023-04-26T07:42:35.368Z,664.00
2023-04-26T07:43:35.380Z,664.00
2023-04-26T07:44:35.410Z,665.00
2023-04-26T07:45:35.400Z,676.00
2023-04-26T07:46:35.404Z,685.00
2023-04-26T07:47:35.377Z,673.00
2023-04-26T07:48:35.389Z,675.00
2023-04-26T07:49:35.350Z,666.00
2023-04-26T07:50:35.319Z,640.00
2023-04-26T07:51:35.317Z,635.00
2023-04-26T07:52:35.356Z,624.00
2023-04-26T07:53:35.312Z,626.00
2023-04-26T07:54:35.314Z,596.00
2023-04-26T07:55:35.379Z,620.00
2023-04-26T07:56:35.314Z,616.00
2023-04-26T07:57:35.406Z,616.00
2023-04-26T07:58:35.455Z,613.00
2023-04-26T07:59:35.544Z,619.00
2023-04-26T08:00:35.591Z,621.00
2023-04-26T08:01:35.625Z,632.00
2023-04-26T08:02:44.472Z,618.00
2023-04-26T08:03:36.824Z,618.00
2023-04-26T08:04:35.835Z,621.00
2023-04-26T08:05:35.817Z,625.00
2023-04-26T08:06:35.683Z,629.00
2023-04-26T08:07:35.631Z,621.00
2023-04-26T08:08:35.619Z,637.00
2023-04-26T08:09:35.626Z,633.00
2023-04-26T08:10:36.221Z,639.00
2023-04-26T08:11:35.651Z,642.00
2023-04-26T08:12:35.615Z,647.00
2023-04-26T08:13:35.604Z,632.00
2023-04-26T08:14:35.674Z,634.00
2023-04-26T08:15:35.662Z,640.00
2023-04-26T08:16:35.792Z,646.00
2023-04-26T08:17:35.774Z,618.00
2023-04-26T08:18:35.743Z,637.00
2023-04-26T08:19:35.800Z,628.00
2023-04-26T08:20:35.800Z,634.00
2023-04-26T08:21:35.850Z,621.00
2023-04-26T08:22:35.917Z,635.00
2023-04-26T08:23:35.905Z,627.00
2023-04-26T08:24:35.942Z,623.00
2023-04-26T08:25:36.108Z,642.00
2023-04-26T08:26:36.128Z,654.00
2023-04-26T08:27:36.101Z,651.00
2023-04-26T08:28:36.120Z,665.00
2023-04-26T08:29:36.164Z,654.00
2023-04-26T08:30:37.141Z,652.00
2023-04-26T08:31:36.329Z,642.00
2023-04-26T08:32:36.308Z,639.00
2023-04-26T08:33:36.345Z,632.00
2023-04-26T08:34:36.417Z,631.00
2023-04-26T08:35:36.461Z,635.00
2023-04-26T08:36:36.514Z,628.00
2023-04-26T08:37:36.610Z,629.00
2023-04-26T08:38:36.598Z,619.00
2023-04-26T08:39:36.631Z,613.00
2023-04-26T08:40:37.098Z,612.00
2023-04-26T08:41:36.760Z,603.00
2023-04-26T08:42:37.956Z,610.00
2023-04-26T08:43:36.870Z,608.00
2023-04-26T08:44:36.945Z,621.00
2023-04-26T08:45:37.108Z,629.00
2023-04-26T08:46:37.113Z,634.00
2023-04-26T08:47:37.137Z,664.00
2023-04-26T08:48:37.114Z,650.00
2023-04-26T08:49:37.177Z,655.00
2023-04-26T08:50:37.603Z,649.00
2023-04-26T08:51:37.264Z,655.00
2023-04-26T08:52:37.256Z,655.00
2023-04-26T08:53:37.221Z,671.00
2023-04-26T08:54:37.295Z,654.00
2023-04-26T08:55:37.244Z,653.00
2023-04-26T08:56:37.258Z,648.00
2023-04-26T08:57:37.267Z,659.00
2023-04-26T08:58:37.308Z,661.00
2023-04-26T08:59:37.281Z,678.00
2023-04-26T09:00:37.630Z,665.00
2023-04-26T09:01:37.315Z,666.00
2023-04-26T09:02:37.486Z,661.00
2023-04-26T09:03:37.472Z,658.00
2023-04-26T09:04:37.460Z,629.00
2023-04-26T09:05:37.590Z,610.00
2023-04-26T09:06:37.289Z,594.00
2023-04-26T09:07:37.372Z,596.00
2023-04-26T09:08:37.390Z,497.00
2023-04-26T09:09:37.458Z,400.00
2023-04-26T09:10:37.726Z,507.00
2023-04-26T09:11:37.531Z,561.00
2023-04-26T09:12:37.572Z,559.00
2023-04-26T09:13:37.642Z,535.00
2023-04-26T09:14:37.623Z,499.00
2023-04-26T09:15:37.740Z,547.00
2023-04-26T09:16:37.768Z,562.00
2023-04-26T09:17:37.923Z,550.00
2023-04-26T09:18:37.708Z,576.00
2023-04-26T09:19:37.768Z,540.00
2023-04-26T09:20:37.716Z,530.00
2023-04-26T09:21:37.743Z,534.00
2023-04-26T09:22:37.705Z,527.00
2023-04-26T09:23:37.742Z,456.00
2023-04-26T09:24:37.737Z,534.00
2023-04-26T09:25:38.126Z,559.00
2023-04-26T09:26:37.739Z,551.00
2023-04-26T09:27:37.790Z,559.00
2023-04-26T09:28:37.797Z,562.00
2023-04-26T09:29:37.832Z,467.00
2023-04-26T09:30:37.878Z,485.00
2023-04-26T09:31:37.927Z,574.00
2023-04-26T09:32:37.991Z,602.00
2023-04-26T09:33:37.908Z,608.00
2023-04-26T09:34:37.964Z,610.00
2023-04-26T09:35:37.999Z,630.00
2023-04-26T09:36:38.052Z,637.00
2023-04-26T09:37:50.735Z,608.00
2023-04-26T09:38:39.119Z,577.00
2023-04-26T09:39:38.033Z,598.00
2023-04-26T09:40:38.111Z,624.00
2023-04-26T09:41:38.014Z,615.00
2023-04-26T09:42:38.027Z,602.00
2023-04-26T09:43:38.007Z,621.00
2023-04-26T09:44:38.009Z,606.00
2023-04-26T09:45:37.962Z,572.00
2023-04-26T09:46:38.025Z,575.00
2023-04-26T09:47:37.984Z,494.00
2023-04-26T09:48:37.923Z,444.00
2023-04-26T09:49:37.932Z,519.00
2023-04-26T09:50:38.670Z,550.00
2023-04-26T09:51:37.949Z,568.00
2023-04-26T09:52:37.918Z,535.00
2023-04-26T09:53:37.916Z,543.00
2023-04-26T09:54:37.941Z,500.00
2023-04-26T09:55:37.894Z,512.00
2023-04-26T09:56:38.002Z,551.00
2023-04-26T09:57:38.064Z,608.00
2023-04-26T09:58:38.077Z,617.00
2023-04-26T09:59:38.136Z,610.00
2023-04-26T10:00:38.261Z,615.00
2023-04-26T10:01:38.350Z,623.00
2023-04-26T10:02:38.435Z,642.00
2023-04-26T10:03:38.697Z,661.00
2023-04-26T10:04:38.439Z,662.00
2023-04-26T10:05:38.481Z,701.00
2023-04-26T10:06:38.504Z,658.00
2023-04-26T10:07:38.597Z,763.00
2023-04-26T10:08:38.646Z,594.00
2023-04-26T10:09:38.680Z,625.00
2023-04-26T10:10:38.744Z,632.00
2023-04-26T10:11:39.344Z,652.00
2023-04-26T10:12:38.831Z,614.00
2023-04-26T10:13:38.910Z,681.00
2023-04-26T10:14:38.923Z,723.00
2023-04-26T10:15:38.987Z,690.00
2023-04-26T10:16:39.109Z,705.00
2023-04-26T10:17:39.105Z,809.00
2023-04-26T10:18:39.175Z,889.00
2023-04-26T10:19:39.200Z,757.00
2023-04-26T10:20:39.297Z,552.00
2023-04-26T10:21:39.345Z,530.00
2023-04-26T10:22:39.363Z,552.00
2023-04-26T10:23:39.430Z,660.00
2023-04-26T10:24:39.453Z,904.00
2023-04-26T10:25:39.573Z,745.00
2023-04-26T10:26:39.574Z,596.00
2023-04-26T10:27:39.624Z,580.00
2023-04-26T10:28:39.706Z,625.00
2023-04-26T10:29:39.770Z,697.00
2023-04-26T10:30:39.785Z,754.00
2023-04-26T10:31:40.133Z,880.00
2023-04-26T10:32:39.964Z,885.00
2023-04-26T10:33:39.997Z,945.00
2023-04-26T10:34:40.030Z,961.00
2023-04-26T10:35:40.077Z,1010.00
2023-04-26T10:36:40.141Z,1059.00
2023-04-26T10:37:40.226Z,1131.00
2023-04-26T10:38:41.149Z,1111.00
2023-04-26T10:39:40.185Z,1138.00
2023-04-26T10:40:40.203Z,1153.00
2023-04-26T10:41:40.637Z,1195.00
2023-04-26T10:42:41.564Z,1238.00
2023-04-26T10:43:40.120Z,1279.00
2023-04-26T10:44:40.170Z,1304.00
2023-04-26T10:45:40.200Z,1330.00
2023-04-26T10:46:40.295Z,1326.00
2023-04-26T10:47:40.124Z,1332.00
2023-04-26T10:48:40.101Z,1333.00
2023-04-26T10:49:40.136Z,1333.00
2023-04-26T10:50:40.185Z,1358.00
2023-04-26T10:51:40.228Z,1349.00
2023-04-26T10:52:40.257Z,1374.00
2023-04-26T10:53:40.282Z,1413.00
2023-04-26T10:54:40.347Z,1386.00
2023-04-26T10:55:40.384Z,1393.00
2023-04-26T10:56:40.428Z,1418.00
2023-04-26T10:57:40.481Z,1432.00
2023-04-26T10:58:40.514Z,1437.00
2023-04-26T10:59:53.894Z,1440.00
2023-04-26T11:00:41.538Z,1441.00
2023-04-26T11:01:40.596Z,1442.00
2023-04-26T11:02:40.640Z,1447.00
2023-04-26T11:03:40.861Z,1457.00
2023-04-26T11:04:40.573Z,1492.00
2023-04-26T11:05:40.508Z,1477.00
2023-04-26T11:06:40.701Z,1498.00
2023-04-26T11:07:40.483Z,1505.00
2023-04-26T11:08:40.499Z,1507.00
2023-04-26T11:09:40.486Z,1521.00
2023-04-26T11:10:40.484Z,1500.00
2023-04-26T11:11:40.500Z,1503.00
2023-04-26T11:12:40.566Z,1505.00
2023-04-26T11:13:40.578Z,1515.00
2023-04-26T11:14:40.626Z,1517.00
2023-04-26T11:15:40.761Z,1532.00
2023-04-26T11:16:40.691Z,1519.00
2023-04-26T11:17:40.732Z,1526.00
2023-04-26T11:18:40.740Z,1525.00
2023-04-26T11:19:40.760Z,1536.00
2023-04-26T11:20:40.773Z,1518.00
2023-04-26T11:21:41.146Z,1557.00
2023-04-26T11:22:40.806Z,1544.00
2023-04-26T11:23:40.873Z,1523.00
2023-04-26T11:24:40.886Z,1533.00
2023-04-26T11:25:40.921Z,1538.00
2023-04-26T11:26:40.970Z,1536.00
2023-04-26T11:27:40.958Z,1538.00
2023-04-26T11:28:41.016Z,1551.00
2023-04-26T11:29:41.011Z,1538.00
2023-04-26T11:30:41.040Z,1543.00
2023-04-26T11:31:41.132Z,1543.00
2023-04-26T11:32:41.140Z,1544.00
2023-04-26T11:33:41.145Z,1546.00
2023-04-26T11:34:41.182Z,1539.00
2023-04-26T11:35:41.204Z,1539.00
2023-04-26T11:36:41.695Z,1532.00
2023-04-26T11:37:41.296Z,1536.00
2023-04-26T11:38:41.371Z,1538.00
2023-04-26T11:39:41.324Z,1537.00
2023-04-26T11:40:41.327Z,1546.00
2023-04-26T11:41:41.684Z,1543.00
2023-04-26T11:42:41.379Z,1545.00
2023-04-26T11:43:41.434Z,1536.00
2023-04-26T11:44:41.465Z,1529.00
2023-04-26T11:45:41.498Z,1530.00
2023-04-26T11:46:41.508Z,1526.00
2023-04-26T11:47:41.531Z,1550.00
2023-04-26T11:48:41.517Z,1530.00
2023-04-26T11:49:41.574Z,1537.00
2023-04-26T11:50:41.576Z,1538.00
2023-04-26T11:51:41.607Z,1546.00
2023-04-26T11:52:41.636Z,1548.00
2023-04-26T11:53:41.620Z,1526.00
2023-04-26T11:54:41.673Z,1552.00
2023-04-26T11:55:41.686Z,1543.00
2023-04-26T11:56:41.803Z,1538.00
2023-04-26T11:57:41.722Z,1543.00
2023-04-26T11:58:41.743Z,1541.00
2023-04-26T11:59:41.792Z,1525.00
2023-04-26T12:00:41.823Z,1520.00
2023-04-26T12:01:41.869Z,1533.00
2023-04-26T12:02:42.010Z,1512.00
2023-04-26T12:03:41.962Z,1526.00
2023-04-26T12:04:42.328Z,1536.00
2023-04-26T12:05:41.881Z,1517.00
2023-04-26T12:06:41.942Z,1528.00
2023-04-26T12:07:41.913Z,1507.00
2023-04-26T12:08:41.974Z,1517.00
2023-04-26T12:09:41.957Z,1507.00
2023-04-26T12:10:42.017Z,1524.00
2023-04-26T12:11:42.018Z,1512.00
2023-04-26T12:12:42.042Z,1516.00
2023-04-26T12:13:42.062Z,1529.00
2023-04-26T12:14:42.094Z,1512.00
2023-04-26T12:15:42.113Z,1509.00
2023-04-26T12:16:42.142Z,1505.00
2023-04-26T12:17:42.725Z,1511.00
2023-04-26T12:18:42.181Z,1511.00
2023-04-26T12:19:42.187Z,1530.00
2023-04-26T12:20:42.248Z,1513.00
2023-04-26T12:21:42.439Z,1522.00
2023-04-26T12:22:42.279Z,1500.00
2023-04-26T12:23:42.305Z,1501.00
2023-04-26T12:24:42.364Z,1514.00
2023-04-26T12:25:42.385Z,1507.00
2023-04-26T12:26:42.470Z,1496.00